sensor_id;sensor_type;location;lat;lon;timestamp;pressure;altitude;pressure_sealevel;temperature;humidity
51928;BME280;37953;52.806;18.270;2023-08-12T00:00:52;101241.81;;;17.16;100.00
51928;BME280;37953;52.806;18.270;2023-08-12T00:03:38;101240.09;;;17.13;100.00
51928;BME280;37953;52.806;18.270;2023-08-12T00:06:04;101239.25;;;17.11;100.00
51928;BME280;37953;52.806;18.270;2023-08-12T00:08:31;101245.41;;;17.08;100.00
51928;BME280;37953;52.806;18.270;2023-08-12T00:10:57;101241.03;;;17.07;100.00
51928;BME280;37953;52.806;18.270;2023-08-12T00:13:23;101241.94;;;17.05;100.00
51928;BME280;37953;52.806;18.270;2023-08-12T00:15:50;101242.84;;;17.04;100.00
51928;BME280;37953;52.806;18.270;2023-08-12T00:18:15;101236.72;;;17.03;100.00
51928;BME280;37953;52.806;18.270;2023-08-12T00:20:43;101244.59;;;17.03;100.00
51928;BME280;37953;52.806;18.270;2023-08-12T00:23:11;101242.00;;;17.02;100.00
51928;BME280;37953;52.806;18.270;2023-08-12T00:25:37;101234.16;;;16.97;100.00
51928;BME280;37953;52.806;18.270;2023-08-12T00:28:03;101234.19;;;16.96;100.00
51928;BME280;37953;52.806;18.270;2023-08-12T00:30:29;101239.44;;;16.96;100.00
51928;BME280;37953;52.806;18.270;2023-08-12T00:32:55;101234.22;;;16.91;100.00
51928;BME280;37953;52.806;18.270;2023-08-12T00:35:21;101245.63;;;16.90;100.00
51928;BME280;37953;52.806;18.270;2023-08-12T00:37:47;101236.88;;;16.89;100.00
51928;BME280;37953;52.806;18.270;2023-08-12T00:40:13;101242.16;;;16.86;100.00
51928;BME280;37953;52.806;18.270;2023-08-12T00:42:39;101237.78;;;16.87;100.00
51928;BME280;37953;52.806;18.270;2023-08-12T00:45:19;101242.13;;;16.89;100.00
51928;BME280;37953;52.806;18.270;2023-08-12T00:47:45;101246.53;;;16.86;100.00
51928;BME280;37953;52.806;18.270;2023-08-12T00:50:12;101246.53;;;16.86;100.00
51928;BME280;37953;52.806;18.270;2023-08-12T00:52:40;101237.81;;;16.84;100.00
51928;BME280;37953;52.806;18.270;2023-08-12T00:55:06;101238.72;;;16.83;100.00
51928;BME280;37953;52.806;18.270;2023-08-12T00:57:32;101240.44;;;16.82;100.00
51928;BME280;37953;52.806;18.270;2023-08-12T00:59:58;101237.84;;;16.81;100.00
51928;BME280;37953;52.806;18.270;2023-08-12T01:02:29;101242.03;;;16.99;100.00
51928;BME280;37953;52.806;18.270;2023-08-12T01:04:55;101242.16;;;16.86;100.00
51928;BME280;37953;52.806;18.270;2023-08-12T01:07:21;101241.34;;;16.81;100.00
51928;BME280;37953;52.806;18.270;2023-08-12T01:09:47;101237.84;;;16.76;100.00
51928;BME280;37953;52.806;18.270;2023-08-12T01:12:18;101240.47;;;16.76;100.00
51928;BME280;37953;52.806;18.270;2023-08-12T01:17:20;101237.91;;;16.72;100.00
51928;BME280;37953;52.806;18.270;2023-08-12T01:19:47;101238.81;;;16.69;100.00
51928;BME280;37953;52.806;18.270;2023-08-12T01:22:13;101245.81;;;16.68;100.00
51928;BME280;37953;52.806;18.270;2023-08-12T01:24:44;101240.59;;;16.65;100.00
51928;BME280;37953;52.806;18.270;2023-08-12T01:27:16;101234.47;;;16.65;100.00
51928;BME280;37953;52.806;18.270;2023-08-12T01:29:48;101222.28;;;16.62;100.00
51928;BME280;37953;52.806;18.270;2023-08-12T01:32:32;101229.28;;;16.62;100.00
51928;BME280;37953;52.806;18.270;2023-08-12T01:35:04;101233.69;;;16.57;100.00
51928;BME280;37953;52.806;18.270;2023-08-12T01:37:33;101227.63;;;16.52;100.00
51928;BME280;37953;52.806;18.270;2023-08-12T01:40:07;101224.13;;;16.51;100.00
51928;BME280;37953;52.806;18.270;2023-08-12T01:42:36;101221.56;;;16.45;100.00
51928;BME280;37953;52.806;18.270;2023-08-12T01:45:04;101220.72;;;16.41;100.00
51928;BME280;37953;52.806;18.270;2023-08-12T01:47:31;101229.50;;;16.37;100.00
51928;BME280;37953;52.806;18.270;2023-08-12T01:49:58;101227.78;;;16.35;100.00
51928;BME280;37953;52.806;18.270;2023-08-12T01:52:24;101218.16;;;16.37;100.00
51928;BME280;37953;52.806;18.270;2023-08-12T01:54:50;101220.78;;;16.34;100.00
51928;BME280;37953;52.806;18.270;2023-08-12T01:57:16;101216.44;;;16.31;100.00
51928;BME280;37953;52.806;18.270;2023-08-12T01:59:42;101224.31;;;16.29;100.00
51928;BME280;37953;52.806;18.270;2023-08-12T02:02:12;101215.59;;;16.27;100.00
51928;BME280;37953;52.806;18.270;2023-08-12T02:04:39;101216.50;;;16.25;100.00
51928;BME280;37953;52.806;18.270;2023-08-12T02:07:06;101213.91;;;16.22;100.00
51928;BME280;37953;52.806;18.270;2023-08-12T02:09:32;101213.06;;;16.20;100.00
51928;BME280;37953;52.806;18.270;2023-08-12T02:11:58;101216.53;;;16.19;100.00
51928;BME280;37953;52.806;18.270;2023-08-12T02:14:24;101225.31;;;16.16;100.00
51928;BME280;37953;52.806;18.270;2023-08-12T02:16:49;101228.84;;;16.12;100.00
51928;BME280;37953;52.806;18.270;2023-08-12T02:19:16;101227.09;;;16.11;100.00
51928;BME280;37953;52.806;18.270;2023-08-12T02:21:42;101224.50;;;16.08;100.00
51928;BME280;37953;52.806;18.270;2023-08-12T02:24:08;101226.25;;;16.06;100.00
51928;BME280;37953;52.806;18.270;2023-08-12T02:26:34;101217.53;;;16.04;100.00
51928;BME280;37953;52.806;18.270;2023-08-12T02:29:01;101225.44;;;16.02;100.00
51928;BME280;37953;52.806;18.270;2023-08-12T02:31:27;101224.53;;;16.02;100.00
51928;BME280;37953;52.806;18.270;2023-08-12T02:33:52;101225.44;;;16.01;100.00
51928;BME280;37953;52.806;18.270;2023-08-12T02:36:24;101228.06;;;16.01;100.00
51928;BME280;37953;52.806;18.270;2023-08-12T02:38:52;101229.78;;;16.03;100.00
51928;BME280;37953;52.806;18.270;2023-08-12T02:41:18;101228.88;;;16.06;100.00
51928;BME280;37953;52.806;18.270;2023-08-12T02:43:44;101228.88;;;16.06;100.00
51928;BME280;37953;52.806;18.270;2023-08-12T02:46:10;101228.88;;;16.06;100.00
51928;BME280;37953;52.806;18.270;2023-08-12T02:48:36;101219.28;;;16.06;100.00
51928;BME280;37953;52.806;18.270;2023-08-12T02:51:02;101225.34;;;16.10;100.00
51928;BME280;37953;52.806;18.270;2023-08-12T02:53:28;101223.59;;;16.12;100.00
51928;BME280;37953;52.806;18.270;2023-08-12T02:55:54;101218.34;;;16.14;100.00
51928;BME280;37953;52.806;18.270;2023-08-12T02:58:20;101223.59;;;16.15;100.00
51928;BME280;37953;52.806;18.270;2023-08-12T03:00:46;101218.31;;;16.17;100.00
51928;BME280;37953;52.806;18.270;2023-08-12T03:03:12;101218.31;;;16.17;100.00
51928;BME280;37953;52.806;18.270;2023-08-12T03:05:37;101221.81;;;16.17;100.00
51928;BME280;37953;52.806;18.270;2023-08-12T03:08:04;101213.94;;;16.17;100.00
51928;BME280;37953;52.806;18.270;2023-08-12T03:10:30;101215.69;;;16.17;100.00
51928;BME280;37953;52.806;18.270;2023-08-12T03:12:57;101220.97;;;16.12;100.00
51928;BME280;37953;52.806;18.270;2023-08-12T03:15:22;101228.00;;;16.07;100.00
51928;BME280;37953;52.806;18.270;2023-08-12T03:17:48;101224.53;;;16.05;100.00
51928;BME280;37953;52.806;18.270;2023-08-12T03:20:14;101222.78;;;16.04;100.00
51928;BME280;37953;52.806;18.270;2023-08-12T03:22:40;101226.28;;;16.04;100.00
51928;BME280;37953;52.806;18.270;2023-08-12T03:25:06;101221.91;;;16.05;100.00
51928;BME280;37953;52.806;18.270;2023-08-12T03:27:33;101222.78;;;16.07;100.00
51928;BME280;37953;52.806;18.270;2023-08-12T03:29:58;101222.72;;;16.10;100.00
51928;BME280;37953;52.806;18.270;2023-08-12T03:32:25;101232.31;;;16.13;100.00
51928;BME280;37953;52.806;18.270;2023-08-12T03:34:51;101229.69;;;16.16;100.00
51928;BME280;37953;52.806;18.270;2023-08-12T03:37:18;101226.16;;;16.17;100.00
51928;BME280;37953;52.806;18.270;2023-08-12T03:39:44;101222.69;;;16.18;100.00
51928;BME280;37953;52.806;18.270;2023-08-12T03:42:10;101230.50;;;16.21;100.00
51928;BME280;37953;52.806;18.270;2023-08-12T03:44:36;101228.72;;;16.24;100.00
51928;BME280;37953;52.806;18.270;2023-08-12T03:47:02;101229.63;;;16.23;100.00
51928;BME280;37953;52.806;18.270;2023-08-12T03:49:28;101236.59;;;16.24;100.00
51928;BME280;37953;52.806;18.270;2023-08-12T03:51:54;101243.56;;;16.25;100.00
51928;BME280;37953;52.806;18.270;2023-08-12T03:54:20;101250.56;;;16.26;100.00
51928;BME280;37953;52.806;18.270;2023-08-12T03:56:46;101244.47;;;16.26;100.00
51928;BME280;37953;52.806;18.270;2023-08-12T03:59:12;101234.84;;;16.28;100.00
51928;BME280;37953;52.806;18.270;2023-08-12T04:01:38;101237.41;;;16.29;100.00
51928;BME280;37953;52.806;18.270;2023-08-12T04:04:04;101238.31;;;16.30;100.00
51928;BME280;37953;52.806;18.270;2023-08-12T04:06:30;101234.78;;;16.29;100.00
51928;BME280;37953;52.806;18.270;2023-08-12T04:08:56;101236.56;;;16.31;100.00
51928;BME280;37953;52.806;18.270;2023-08-12T04:11:22;101233.03;;;16.35;100.00
51928;BME280;37953;52.806;18.270;2023-08-12T04:13:48;101229.53;;;16.34;100.00
51928;BME280;37953;52.806;18.270;2023-08-12T04:16:14;101226.88;;;16.36;100.00
51928;BME280;37953;52.806;18.270;2023-08-12T04:18:40;101231.25;;;16.37;100.00
51928;BME280;37953;52.806;18.270;2023-08-12T04:21:06;101242.59;;;16.39;100.00
51928;BME280;37953;52.806;18.270;2023-08-12T04:23:32;101230.34;;;16.39;100.00
51928;BME280;37953;52.806;18.270;2023-08-12T04:25:58;101225.97;;;16.41;100.00
51928;BME280;37953;52.806;18.270;2023-08-12T04:28:24;101218.94;;;16.43;100.00
51928;BME280;37953;52.806;18.270;2023-08-12T04:30:51;101219.81;;;16.47;100.00
51928;BME280;37953;52.806;18.270;2023-08-12T04:33:18;101215.41;;;16.49;100.00
51928;BME280;37953;52.806;18.270;2023-08-12T04:35:45;101215.41;;;16.49;100.00
51928;BME280;37953;52.806;18.270;2023-08-12T04:38:11;101219.75;;;16.52;100.00
51928;BME280;37953;52.806;18.270;2023-08-12T04:40:39;101227.63;;;16.53;100.00
51928;BME280;37953;52.806;18.270;2023-08-12T04:43:05;101214.47;;;16.55;100.00
51928;BME280;37953;52.806;18.270;2023-08-12T04:45:32;101219.69;;;16.58;100.00
51928;BME280;37953;52.806;18.270;2023-08-12T04:48:01;101210.94;;;16.59;100.00
51928;BME280;37953;52.806;18.270;2023-08-12T04:50:30;101210.06;;;16.60;100.00
51928;BME280;37953;52.806;18.270;2023-08-12T04:52:57;101218.75;;;16.63;100.00
51928;BME280;37953;52.806;18.270;2023-08-12T04:55:25;101217.88;;;16.64;100.00
51928;BME280;37953;52.806;18.270;2023-08-12T04:57:51;101220.50;;;16.66;100.00
51928;BME280;37953;52.806;18.270;2023-08-12T05:00:22;101220.44;;;16.67;100.00
51928;BME280;37953;52.806;18.270;2023-08-12T05:02:48;101216.06;;;16.69;100.00
51928;BME280;37953;52.806;18.270;2023-08-12T05:05:14;101208.19;;;16.71;100.00
51928;BME280;37953;52.806;18.270;2023-08-12T05:07:40;101201.16;;;16.72;100.00
51928;BME280;37953;52.806;18.270;2023-08-12T05:10:06;101211.66;;;16.73;100.00
51928;BME280;37953;52.806;18.270;2023-08-12T05:12:32;101207.28;;;16.74;100.00
51928;BME280;37953;52.806;18.270;2023-08-12T05:14:58;101207.25;;;16.75;100.00
51928;BME280;37953;52.806;18.270;2023-08-12T05:17:24;101205.50;;;16.77;100.00
51928;BME280;37953;52.806;18.270;2023-08-12T05:19:50;101203.75;;;16.81;100.00
51928;BME280;37953;52.806;18.270;2023-08-12T05:22:16;101208.94;;;16.82;100.00
51928;BME280;37953;52.806;18.270;2023-08-12T05:24:42;101207.19;;;16.84;100.00
51928;BME280;37953;52.806;18.270;2023-08-12T05:27:08;101194.91;;;16.86;100.00
51928;BME280;37953;52.806;18.270;2023-08-12T05:29:34;101195.81;;;16.87;100.00
51928;BME280;37953;52.806;18.270;2023-08-12T05:32:00;101199.22;;;16.92;100.00
51928;BME280;37953;52.806;18.270;2023-08-12T05:34:26;101199.19;;;16.95;100.00
51928;BME280;37953;52.806;18.270;2023-08-12T05:36:52;101200.94;;;16.98;100.00
51928;BME280;37953;52.806;18.270;2023-08-12T05:39:18;101200.88;;;17.02;100.00
51928;BME280;37953;52.806;18.270;2023-08-12T05:41:44;101191.22;;;17.04;100.00
51928;BME280;37953;52.806;18.270;2023-08-12T05:44:15;101203.38;;;17.10;100.00
51928;BME280;37953;52.806;18.270;2023-08-12T05:46:40;101201.59;;;17.14;100.00
51928;BME280;37953;52.806;18.270;2023-08-12T05:49:07;101202.44;;;17.14;100.00
51928;BME280;37953;52.806;18.270;2023-08-12T05:51:32;101203.22;;;17.22;100.00
51928;BME280;37953;52.806;18.270;2023-08-12T05:53:58;101204.94;;;17.26;100.00
51928;BME280;37953;52.806;18.270;2023-08-12T05:56:24;101207.47;;;17.33;100.00
51928;BME280;37953;52.806;18.270;2023-08-12T05:58:50;101203.06;;;17.35;100.00
51928;BME280;37953;52.806;18.270;2023-08-12T06:01:17;101198.59;;;17.41;100.00
51928;BME280;37953;52.806;18.270;2023-08-12T06:03:43;101196.75;;;17.48;100.00
51928;BME280;37953;52.806;18.270;2023-08-12T06:06:08;101197.56;;;17.53;100.00
51928;BME280;37953;52.806;18.270;2023-08-12T06:08:35;101194.88;;;17.58;100.00
51928;BME280;37953;52.806;18.270;2023-08-12T06:11:01;101196.53;;;17.63;100.00
51928;BME280;37953;52.806;18.270;2023-08-12T06:13:27;101186.84;;;17.67;100.00
51928;BME280;37953;52.806;18.270;2023-08-12T06:15:53;101189.38;;;17.73;100.00
51928;BME280;37953;52.806;18.270;2023-08-12T06:18:19;101190.22;;;17.77;100.00
51928;BME280;37953;52.806;18.270;2023-08-12T06:20:44;101188.34;;;17.82;100.00
51928;BME280;37953;52.806;18.270;2023-08-12T06:23:10;101197.09;;;17.87;100.00
51928;BME280;37953;52.806;18.270;2023-08-12T06:25:36;101193.53;;;17.91;100.00
51928;BME280;37953;52.806;18.270;2023-08-12T06:28:03;101191.69;;;17.95;100.00
51928;BME280;37953;52.806;18.270;2023-08-12T06:30:30;101194.28;;;17.98;100.00
51928;BME280;37953;52.806;18.270;2023-08-12T06:33:09;101187.19;;;18.03;100.00
51928;BME280;37953;52.806;18.270;2023-08-12T06:35:35;101182.75;;;18.05;100.00
51928;BME280;37953;52.806;18.270;2023-08-12T06:38:01;101177.41;;;18.09;100.00
51928;BME280;37953;52.806;18.270;2023-08-12T06:40:27;101174.75;;;18.13;100.00
51928;BME280;37953;52.806;18.270;2023-08-12T06:42:53;101173.84;;;18.15;100.00
51928;BME280;37953;52.806;18.270;2023-08-12T06:45:19;101170.25;;;18.19;100.00
51928;BME280;37953;52.806;18.270;2023-08-12T06:47:45;101169.38;;;18.20;100.00
51928;BME280;37953;52.806;18.270;2023-08-12T06:50:11;101173.63;;;18.27;100.00
51928;BME280;37953;52.806;18.270;2023-08-12T06:52:37;101184.06;;;18.30;100.00
51928;BME280;37953;52.806;18.270;2023-08-12T06:55:03;101177.91;;;18.33;100.00
51928;BME280;37953;52.806;18.270;2023-08-12T06:57:29;101178.69;;;18.37;100.00
51928;BME280;37953;52.806;18.270;2023-08-12T06:59:55;101179.53;;;18.39;100.00
51928;BME280;37953;52.806;18.270;2023-08-12T07:02:22;101182.13;;;18.42;100.00
51928;BME280;37953;52.806;18.270;2023-08-12T07:04:48;101180.38;;;18.42;100.00
51928;BME280;37953;52.806;18.270;2023-08-12T07:07:15;101194.34;;;18.46;100.00
51928;BME280;37953;52.806;18.270;2023-08-12T07:09:41;101184.66;;;18.48;100.00
51928;BME280;37953;52.806;18.270;2023-08-12T07:12:07;101187.16;;;18.54;100.00
51928;BME280;37953;52.806;18.270;2023-08-12T07:14:33;101184.47;;;18.57;100.00
51928;BME280;37953;52.806;18.270;2023-08-12T07:17:14;101174.78;;;18.61;100.00
51928;BME280;37953;52.806;18.270;2023-08-12T07:19:40;101176.44;;;18.65;100.00
51928;BME280;37953;52.806;18.270;2023-08-12T07:22:07;101175.50;;;18.67;100.00
51928;BME280;37953;52.806;18.270;2023-08-12T07:24:36;101172.81;;;18.70;100.00
51928;BME280;37953;52.806;18.270;2023-08-12T07:27:01;101175.41;;;18.74;100.00
51928;BME280;37953;52.806;18.270;2023-08-12T07:29:28;101170.06;;;18.77;100.00
51928;BME280;37953;52.806;18.270;2023-08-12T07:31:54;101175.31;;;18.80;100.00
51928;BME280;37953;52.806;18.270;2023-08-12T07:34:20;101177.00;;;18.82;100.00
51928;BME280;37953;52.806;18.270;2023-08-12T07:36:47;101171.66;;;18.85;100.00
51928;BME280;37953;52.806;18.270;2023-08-12T07:39:13;101169.91;;;18.86;100.00
51928;BME280;37953;52.806;18.270;2023-08-12T07:41:39;101164.56;;;18.90;100.00
51928;BME280;37953;52.806;18.270;2023-08-12T07:44:05;101172.34;;;18.95;100.00
51928;BME280;37953;52.806;18.270;2023-08-12T07:46:31;101175.81;;;18.99;100.00
51928;BME280;37953;52.806;18.270;2023-08-12T07:49:12;101166.03;;;19.02;100.00
51928;BME280;37953;52.806;18.270;2023-08-12T07:51:41;101162.47;;;19.05;100.00
51928;BME280;37953;52.806;18.270;2023-08-12T07:54:07;101163.28;;;19.08;100.00
51928;BME280;37953;52.806;18.270;2023-08-12T07:56:33;101157.91;;;19.13;100.00
51928;BME280;37953;52.806;18.270;2023-08-12T07:58:59;101156.06;;;19.18;100.00
51928;BME280;37953;52.806;18.270;2023-08-12T08:01:25;101142.81;;;19.21;100.00
51928;BME280;37953;52.806;18.270;2023-08-12T08:03:52;101136.56;;;19.25;100.00
51928;BME280;37953;52.806;18.270;2023-08-12T08:06:19;101138.25;;;19.29;100.00
51928;BME280;37953;52.806;18.270;2023-08-12T08:08:46;101133.78;;;19.33;100.00
51928;BME280;37953;52.806;18.270;2023-08-12T08:11:12;101130.22;;;19.34;100.00
51928;BME280;37953;52.806;18.270;2023-08-12T08:13:38;101132.72;;;19.40;100.00
51928;BME280;37953;52.806;18.270;2023-08-12T08:16:05;101138.78;;;19.45;100.00
51928;BME280;37953;52.806;18.270;2023-08-12T08:18:31;101122.97;;;19.45;100.00
51928;BME280;37953;52.806;18.270;2023-08-12T08:20:57;101126.38;;;19.49;100.00
51928;BME280;37953;52.806;18.270;2023-08-12T08:23:23;101128.75;;;19.60;100.00
51928;BME280;37953;52.806;18.270;2023-08-12T08:25:49;101130.41;;;19.64;100.00
51928;BME280;37953;52.806;18.270;2023-08-12T08:28:15;101128.59;;;19.66;100.00
51928;BME280;37953;52.806;18.270;2023-08-12T08:30:42;101137.31;;;19.69;100.00
51928;BME280;37953;52.806;18.270;2023-08-12T08:33:08;101133.72;;;19.73;99.88
51928;BME280;37953;52.806;18.270;2023-08-12T08:35:34;101137.16;;;19.77;99.37
51928;BME280;37953;52.806;18.270;2023-08-12T08:38:00;101136.19;;;19.81;98.04
51928;BME280;37953;52.806;18.270;2023-08-12T08:40:27;101136.94;;;19.86;96.74
51928;BME280;37953;52.806;18.270;2023-08-12T08:42:54;101139.41;;;19.92;97.34
51928;BME280;37953;52.806;18.270;2023-08-12T08:45:21;101141.91;;;19.97;95.88
51928;BME280;37953;52.806;18.270;2023-08-12T08:47:51;101135.69;;;20.00;96.34
51928;BME280;37953;52.806;18.270;2023-08-12T08:50:19;101131.19;;;20.05;95.86
51928;BME280;37953;52.806;18.270;2023-08-12T08:52:46;101128.31;;;20.12;97.02
51928;BME280;37953;52.806;18.270;2023-08-12T08:55:13;101122.06;;;20.17;96.01
51928;BME280;37953;52.806;18.270;2023-08-12T08:57:41;101132.50;;;20.21;92.94
51928;BME280;37953;52.806;18.270;2023-08-12T09:00:10;101124.47;;;20.26;93.93
51928;BME280;37953;52.806;18.270;2023-08-12T09:02:37;101119.97;;;20.29;93.34
51928;BME280;37953;52.806;18.270;2023-08-12T09:05:04;101129.41;;;20.38;94.92
51928;BME280;37953;52.806;18.270;2023-08-12T09:07:37;101126.66;;;20.43;93.24
51928;BME280;37953;52.806;18.270;2023-08-12T09:10:04;101119.50;;;20.46;94.63
51928;BME280;37953;52.806;18.270;2023-08-12T09:12:31;101122.09;;;20.48;94.66
51928;BME280;37953;52.806;18.270;2023-08-12T09:14:58;101129.81;;;20.56;93.90
51928;BME280;37953;52.806;18.270;2023-08-12T09:17:24;101113.91;;;20.59;91.76
51928;BME280;37953;52.806;18.270;2023-08-12T09:19:50;101118.16;;;20.64;92.52
51928;BME280;37953;52.806;18.270;2023-08-12T09:22:17;101116.25;;;20.69;92.24
51928;BME280;37953;52.806;18.270;2023-08-12T09:24:45;101109.06;;;20.74;94.56
51928;BME280;37953;52.806;18.270;2023-08-12T09:27:11;101100.88;;;20.84;95.59
51928;BME280;37953;52.806;18.270;2023-08-12T09:29:37;101100.56;;;20.93;94.45
51928;BME280;37953;52.806;18.270;2023-08-12T09:32:19;101109.28;;;20.97;94.12
51928;BME280;37953;52.806;18.270;2023-08-12T09:34:52;101105.69;;;20.99;92.27
51928;BME280;37953;52.806;18.270;2023-08-12T09:37:23;101098.44;;;21.06;93.56
51928;BME280;37953;52.806;18.270;2023-08-12T09:39:52;101097.50;;;21.08;93.41
51928;BME280;37953;52.806;18.270;2023-08-12T09:42:18;101086.81;;;21.11;92.14
51928;BME280;37953;52.806;18.270;2023-08-12T09:44:45;101090.28;;;21.13;92.02
51928;BME280;37953;52.806;18.270;2023-08-12T09:47:12;101095.38;;;21.20;90.52
51928;BME280;37953;52.806;18.270;2023-08-12T09:49:40;101088.16;;;21.25;91.58
51928;BME280;37953;52.806;18.270;2023-08-12T09:52:07;101081.00;;;21.28;91.49
51928;BME280;37953;52.806;18.270;2023-08-12T09:54:35;101078.31;;;21.30;90.22
51928;BME280;37953;52.806;18.270;2023-08-12T09:57:03;101079.88;;;21.35;90.88
51928;BME280;37953;52.806;18.270;2023-08-12T09:59:34;101072.72;;;21.39;89.01
51928;BME280;37953;52.806;18.270;2023-08-12T10:02:01;101075.25;;;21.44;88.90
51928;BME280;37953;52.806;18.270;2023-08-12T10:04:38;101071.59;;;21.48;87.78
51928;BME280;37953;52.806;18.270;2023-08-12T10:07:09;101067.97;;;21.50;86.77
51928;BME280;37953;52.806;18.270;2023-08-12T10:09:39;101061.78;;;21.51;86.98
51928;BME280;37953;52.806;18.270;2023-08-12T10:12:06;101060.66;;;21.59;89.23
51928;BME280;37953;52.806;18.270;2023-08-12T10:14:33;101055.22;;;21.63;87.92
51928;BME280;37953;52.806;18.270;2023-08-12T10:17:05;101052.44;;;21.68;87.35
51928;BME280;37953;52.806;18.270;2023-08-12T10:19:32;101051.50;;;21.69;86.77
51928;BME280;37953;52.806;18.270;2023-08-12T10:22:00;101050.47;;;21.73;85.67
51928;BME280;37953;52.806;18.270;2023-08-12T10:24:29;101048.56;;;21.78;85.13
51928;BME280;37953;52.806;18.270;2023-08-12T10:26:55;101050.31;;;21.78;87.61
51928;BME280;37953;52.806;18.270;2023-08-12T10:29:30;101045.66;;;21.84;88.82
51928;BME280;37953;52.806;18.270;2023-08-12T10:31:56;101051.75;;;21.86;88.35
51928;BME280;37953;52.806;18.270;2023-08-12T10:34:24;101048.97;;;21.91;87.74
51928;BME280;37953;52.806;18.270;2023-08-12T10:36:55;101050.44;;;22.00;87.71
51928;BME280;37953;52.806;18.270;2023-08-12T10:39:25;101038.91;;;22.01;85.92
51928;BME280;37953;52.806;18.270;2023-08-12T10:41:55;101021.34;;;22.00;86.49
51928;BME280;37953;52.806;18.270;2023-08-12T10:44:21;101030.69;;;22.10;89.34
51928;BME280;37953;52.806;18.270;2023-08-12T10:46:51;101034.97;;;22.12;88.42
51928;BME280;37953;52.806;18.270;2023-08-12T10:49:23;101033.03;;;22.17;88.41
51928;BME280;37953;52.806;18.270;2023-08-12T10:51:54;101027.56;;;22.22;88.40
51928;BME280;37953;52.806;18.270;2023-08-12T10:54:26;101023.00;;;22.27;88.13
51928;BME280;37953;52.806;18.270;2023-08-12T10:59:50;101023.59;;;22.35;86.25
51928;BME280;37953;52.806;18.270;2023-08-12T11:02:19;101015.41;;;22.42;88.16
51928;BME280;37953;52.806;18.270;2023-08-12T11:05:07;101016.03;;;22.48;88.71
51928;BME280;37953;52.806;18.270;2023-08-12T11:07:48;101007.91;;;22.53;85.96
51928;BME280;37953;52.806;18.270;2023-08-12T11:10:25;101006.03;;;22.56;88.32
51928;BME280;37953;52.806;18.270;2023-08-12T11:15:19;100997.84;;;22.63;86.36
51928;BME280;37953;52.806;18.270;2023-08-12T11:17:57;100997.66;;;22.67;88.47
51928;BME280;37953;52.806;18.270;2023-08-12T11:20:23;101001.81;;;22.73;88.54
51928;BME280;37953;52.806;18.270;2023-08-12T11:22:50;100999.03;;;22.77;86.40
51928;BME280;37953;52.806;18.270;2023-08-12T11:25:15;101001.41;;;22.84;87.17
51928;BME280;37953;52.806;18.270;2023-08-12T11:27:44;100992.34;;;22.89;86.01
51928;BME280;37953;52.806;18.270;2023-08-12T11:30:16;100983.50;;;22.90;88.81
51928;BME280;37953;52.806;18.270;2023-08-12T11:32:47;100986.59;;;23.02;90.14
51928;BME280;37953;52.806;18.270;2023-08-12T11:35:14;100978.50;;;23.05;90.96
51928;BME280;37953;52.806;18.270;2023-08-12T11:37:44;100982.56;;;23.13;88.91
51928;BME280;37953;52.806;18.270;2023-08-12T11:40:10;100986.81;;;23.17;89.76
51928;BME280;37953;52.806;18.270;2023-08-12T11:42:39;100979.56;;;23.23;87.66
51928;BME280;37953;52.806;18.270;2023-08-12T11:45:06;100967.84;;;23.28;85.98
51928;BME280;37953;52.806;18.270;2023-08-12T11:47:36;100972.00;;;23.34;87.66
51928;BME280;37953;52.806;18.270;2023-08-12T11:50:03;100971.78;;;23.38;86.57
51928;BME280;37953;52.806;18.270;2023-08-12T11:52:30;100965.44;;;23.43;87.67
51928;BME280;37953;52.806;18.270;2023-08-12T11:54:56;100958.06;;;23.49;88.69
51928;BME280;37953;52.806;18.270;2023-08-12T11:57:23;100958.81;;;23.53;85.17
51928;BME280;37953;52.806;18.270;2023-08-12T11:59:58;100945.50;;;23.54;83.40
51928;BME280;37953;52.806;18.270;2023-08-12T12:02:24;100945.16;;;23.62;86.07
51928;BME280;37953;52.806;18.270;2023-08-12T12:04:51;100944.97;;;23.67;88.29
51928;BME280;37953;52.806;18.270;2023-08-12T12:07:25;100948.25;;;23.72;87.01
51928;BME280;37953;52.806;18.270;2023-08-12T12:09:52;100939.25;;;23.76;83.96
51928;BME280;37953;52.806;18.270;2023-08-12T12:12:25;100940.06;;;23.78;83.66
51928;BME280;37953;52.806;18.270;2023-08-12T12:14:55;100928.59;;;23.77;82.88
51928;BME280;37953;52.806;18.270;2023-08-12T12:17:22;100938.84;;;23.85;80.87
51928;BME280;37953;52.806;18.270;2023-08-12T12:19:59;100930.88;;;23.85;81.64
51928;BME280;37953;52.806;18.270;2023-08-12T12:22:32;100927.94;;;23.91;82.52
51928;BME280;37953;52.806;18.270;2023-08-12T12:25:00;100930.38;;;23.96;83.92
51928;BME280;37953;52.806;18.270;2023-08-12T12:27:26;100935.63;;;23.97;82.37
51928;BME280;37953;52.806;18.270;2023-08-12T12:29:53;100931.00;;;24.03;81.44
51928;BME280;37953;52.806;18.270;2023-08-12T12:32:22;100922.53;;;24.13;81.90
51928;BME280;37953;52.806;18.270;2023-08-12T12:34:49;100929.44;;;24.17;79.46
51928;BME280;37953;52.806;18.270;2023-08-12T12:37:15;100928.34;;;24.22;80.51
51928;BME280;37953;52.806;18.270;2023-08-12T12:39:46;100923.66;;;24.27;83.13
51928;BME280;37953;52.806;18.270;2023-08-12T12:42:16;100918.94;;;24.33;79.78